Time;durP1;ratioP1;P1;durP2;ratioP2;P2;SDS_P1;SDS_P2;PMS_P1;PMS_P2;Temp;Humidity;BMP_temperature;BMP_pressure;BME280_temperature;BME280_humidity;BME280_pressure;Samples;Min_cycle;Max_cycle;Signal;HPM_P1;HPM_P2
2023/01/05 00:00:24;;;;;;;1.38;1.02;;;;;;;10.66;100.00;100288.59;10350668;28;20049;-63
2023/01/05 00:05:25;;;;;;;2.00;0.90;;;;;;;10.61;100.00;100281.84;10353002;28;20095;-62
2023/01/05 00:26:34;;;;;;;0.68;0.40;;;;;;;10.61;100.00;100286.31;10327444;28;20072;-62
2023/01/05 00:31:38;;;;;;;0.32;0.30;;;;;;;10.66;100.00;100288.59;10330136;28;20045;-62
2023/01/05 00:36:40;;;;;;;0.60;0.40;;;;;;;10.61;100.00;100271.22;10334497;28;20042;-65
2023/01/05 00:41:42;;;;;;;0.57;0.50;;;;;;;10.67;100.00;100261.03;10349827;28;20054;-63
2023/01/05 00:46:44;;;;;;;0.40;0.20;;;;;;;10.53;100.00;100262.97;10356848;28;20124;-63
2023/01/05 00:51:46;;;;;;;0.28;0.10;;;;;;;10.57;100.00;100248.47;10353847;28;20297;-62
2023/01/05 00:56:50;;;;;;;0.98;0.40;;;;;;;10.55;100.00;100244.22;10322974;28;20854;-63
2023/01/05 01:01:56;;;;;;;1.33;0.35;;;;;;;10.53;100.00;100249.66;10320107;28;20057;-62
2023/01/05 01:07:02;;;;;;;0.77;0.20;;;;;;;10.55;100.00;100265.50;10336852;28;20064;-63
2023/01/05 01:12:03;;;;;;;0.30;0.20;;;;;;;10.52;100.00;100261.28;10293202;28;20052;-62
2023/01/05 01:17:06;;;;;;;0.47;0.20;;;;;;;10.49;100.00;100250.88;10324305;28;20698;-62
2023/01/05 01:22:08;;;;;;;0.47;0.30;;;;;;;10.51;100.00;100274.69;10312618;28;20211;-63
2023/01/05 01:27:11;;;;;;;0.70;0.50;;;;;;;10.55;100.00;100261.06;10337699;28;20182;-62
2023/01/05 01:32:14;;;;;;;0.38;0.20;;;;;;;10.60;100.00;100279.31;10346836;28;20804;-63
2023/01/05 01:37:16;;;;;;;0.38;0.30;;;;;;;10.66;100.00;100288.59;10338341;28;20569;-62
2023/01/05 01:42:20;;;;;;;1.33;0.35;;;;;;;10.73;100.00;100285.34;10357059;28;20643;-62
2023/01/05 01:47:40;;;;;;;0.98;0.28;;;;;;;10.77;100.00;100285.94;10354654;28;20073;-62
2023/01/05 01:52:44;;;;;;;1.08;0.20;;;;;;;10.84;100.00;100291.59;10305316;28;20126;-65
2023/01/05 01:57:47;;;;;;;0.50;0.40;;;;;;;10.89;100.00;100290.25;10339960;28;20505;-63
2023/01/05 02:02:53;;;;;;;0.63;0.60;;;;;;;11.00;100.00;100285.88;10343983;28;20069;-61
2023/01/05 02:07:57;;;;;;;0.60;0.40;;;;;;;11.03;100.00;100285.63;10343022;28;20085;-63
2023/01/05 02:13:28;;;;;;;0.50;0.40;;;;;;;11.02;100.00;100279.47;10347078;28;20057;-63
2023/01/05 02:19:14;;;;;;;1.08;0.30;;;;;;;11.00;100.00;100280.56;10345740;28;20073;-63
2023/01/05 02:24:42;;;;;;;1.23;0.40;;;;;;;11.05;100.00;100286.34;10298433;28;20294;-63
2023/01/05 02:30:02;;;;;;;1.00;0.50;;;;;;;11.11;100.00;100289.34;10300822;28;20060;-63
2023/01/05 02:35:19;;;;;;;2.40;0.30;;;;;;;11.05;100.00;100268.56;10347513;28;20799;-62
2023/01/05 02:40:28;;;;;;;0.60;0.20;;;;;;;11.11;100.00;100272.53;10346593;28;20056;-63
2023/01/05 02:45:30;;;;;;;1.52;0.43;;;;;;;11.13;100.00;100284.72;10340044;28;20099;-63
2023/01/05 02:50:51;;;;;;;12.13;2.30;;;;;;;11.15;100.00;100271.28;10331682;28;20056;-63
2023/01/05 02:55:59;;;;;;;2.85;0.50;;;;;;;11.13;100.00;100281.22;10343891;28;20051;-63
2023/01/05 03:01:14;;;;;;;3.22;0.47;;;;;;;11.18;100.00;100292.34;10352749;28;20438;-63
2023/01/05 03:06:25;;;;;;;2.08;1.00;;;;;;;11.22;100.00;100295.63;10348963;28;20075;-63
2023/01/05 03:16:58;;;;;;;5.57;0.70;;;;;;;11.25;97.73;100311.34;10357494;28;20297;-65
2023/01/05 03:38:30;;;;;;;6.75;1.80;;;;;;;11.25;87.09;100344.16;10333547;28;20046;-66
2023/01/05 03:43:36;;;;;;;5.47;1.58;;;;;;;11.29;89.30;100361.59;10339679;28;20111;-67
2023/01/05 03:48:37;;;;;;;;;;;;;;;11.30;88.50;100341.13;10346304;28;20046;-68
2023/01/05 03:53:39;;;;;;;6.55;1.90;;;;;;;11.28;83.72;100343.91;10364474;28;19965;-64
2023/01/05 03:58:40;;;;;;;10.85;2.40;;;;;;;11.29;82.90;100337.63;10328775;28;20139;-62
2023/01/05 04:03:41;;;;;;;10.15;1.50;;;;;;;11.32;82.76;100334.69;10317893;28;20054;-63
2023/01/05 04:08:43;;;;;;;5.50;1.70;;;;;;;11.27;80.52;100331.59;10339850;28;20057;-64
2023/01/05 04:13:45;;;;;;;7.25;1.65;;;;;;;11.27;80.40;100342.25;10286000;28;20546;-63
2023/01/05 04:18:47;;;;;;;5.28;1.23;;;;;;;11.26;78.45;100348.53;10358360;28;20145;-63
2023/01/05 04:23:50;;;;;;;9.35;2.75;;;;;;;11.22;79.07;100336.44;10343924;28;20347;-67
2023/01/05 04:28:51;;;;;;;9.25;1.98;;;;;;;11.19;79.87;100342.00;10351481;28;20267;-63
2023/01/05 04:33:53;;;;;;;5.25;1.33;;;;;;;11.23;79.98;100353.25;10335047;28;20066;-62
2023/01/05 04:38:55;;;;;;;5.53;1.63;;;;;;;11.22;80.52;100349.75;10349957;28;20072;-63
2023/01/05 04:43:57;;;;;;;8.13;1.95;;;;;;;11.25;80.35;100364.66;10365533;28;20080;-63
2023/01/05 04:48:58;;;;;;;8.02;1.20;;;;;;;11.21;81.01;100357.88;10363038;28;20053;-64
2023/01/05 04:54:01;;;;;;;7.57;1.80;;;;;;;11.18;80.30;100348.28;10349591;28;20111;-63
2023/01/05 04:59:03;;;;;;;9.60;2.05;;;;;;;11.18;80.31;100355.47;10350255;28;20065;-64
2023/01/05 05:04:04;;;;;;;10.88;2.90;;;;;;;11.17;79.11;100370.59;10316953;28;20049;-64
2023/01/05 05:09:06;;;;;;;10.45;3.05;;;;;;;11.16;79.53;100376.91;10338181;28;20061;-63
2023/01/05 05:14:07;;;;;;;9.70;2.50;;;;;;;11.17;78.84;100386.59;10345551;28;20041;-63
2023/01/05 05:19:09;;;;;;;8.57;2.35;;;;;;;11.15;78.43;100385.84;10338003;28;20744;-64
2023/01/05 05:24:11;;;;;;;9.55;2.60;;;;;;;11.11;77.50;100392.41;10365716;28;20049;-64
2023/01/05 05:29:12;;;;;;;7.45;1.95;;;;;;;11.13;77.71;100395.78;10328392;28;20053;-63
2023/01/05 05:34:13;;;;;;;6.90;2.70;;;;;;;11.11;77.39;100395.09;10357489;28;20053;-66
2023/01/05 05:39:16;;;;;;;10.02;2.35;;;;;;;11.08;76.92;100396.16;10331676;28;20060;-64
2023/01/05 05:44:18;;;;;;;9.00;1.88;;;;;;;11.06;77.51;100408.75;10348734;28;20057;-63
2023/01/05 05:49:19;;;;;;;11.55;3.17;;;;;;;11.06;76.53;100410.56;10350408;28;20506;-63
2023/01/05 05:54:20;;;;;;;8.10;2.55;;;;;;;11.09;77.20;100413.00;10344931;28;20469;-63
2023/01/05 05:59:22;;;;;;;7.95;1.88;;;;;;;11.07;76.15;100414.94;10361563;28;20053;-64
2023/01/05 06:04:23;;;;;;;8.13;2.03;;;;;;;11.04;75.80;100415.19;10349608;28;20139;-63
2023/01/05 06:09:25;;;;;;;12.05;2.63;;;;;;;11.01;75.07;100436.75;10351427;28;20104;-62
2023/01/05 06:14:27;;;;;;;5.05;1.88;;;;;;;11.00;75.61;100435.88;10340439;28;20050;-63
2023/01/05 06:19:28;;;;;;;5.70;2.08;;;;;;;11.01;75.77;100442.06;10341670;28;20057;-63
2023/01/05 06:24:30;;;;;;;6.00;1.83;;;;;;;10.98;75.53;100431.66;10350153;28;20395;-63
2023/01/05 06:29:31;;;;;;;10.93;2.85;;;;;;;10.99;75.66;100441.31;10348282;28;20056;-64
2023/01/05 06:34:33;;;;;;;8.05;1.77;;;;;;;10.94;75.75;100437.22;10348955;28;20052;-64
2023/01/05 06:39:34;;;;;;;10.65;1.90;;;;;;;10.86;75.90;100442.31;10357189;28;20505;-64
2023/01/05 06:44:36;;;;;;;5.38;1.95;;;;;;;10.86;75.66;100454.78;10352516;28;20504;-63
2023/01/05 06:49:37;;;;;;;8.30;2.40;;;;;;;10.86;76.00;100452.94;10349587;28;20049;-63
2023/01/05 06:54:41;;;;;;;6.87;1.97;;;;;;;10.83;76.23;100458.53;10350699;28;20045;-64
2023/01/05 06:59:42;;;;;;;6.82;2.20;;;;;;;10.85;76.51;100451.25;10351139;28;20140;-63
2023/01/05 07:04:45;;;;;;;11.23;3.20;;;;;;;10.89;76.14;100459.88;10353688;28;20056;-63
2023/01/05 07:09:48;;;;;;;9.23;1.80;;;;;;;10.90;75.60;100464.19;10342104;28;20055;-63
2023/01/05 07:14:50;;;;;;;10.02;2.30;;;;;;;10.92;75.11;100484.44;10361657;28;20053;-63
2023/01/05 07:19:58;;;;;;;9.27;2.30;;;;;;;10.92;74.78;100481.75;10366725;28;20650;-64
2023/01/05 07:25:00;;;;;;;8.85;2.20;;;;;;;10.87;74.34;100483.94;10337464;28;20060;-63
2023/01/05 07:30:03;;;;;;;7.03;1.52;;;;;;;11.25;92.16;100488.06;10358726;28;20049;-61
2023/01/05 07:35:04;;;;;;;7.75;1.88;;;;;;;11.30;74.72;100507.22;10353177;28;20508;-56
2023/01/05 07:40:06;;;;;;;8.10;2.25;;;;;;;11.17;74.34;100506.50;10354621;28;20053;-55
2023/01/05 07:45:09;;;;;;;6.22;2.28;;;;;;;10.99;75.08;100510.56;10351900;28;20060;-72
2023/01/05 07:50:11;;;;;;;9.07;2.92;;;;;;;10.95;75.26;100521.47;10344626;28;20045;-73
2023/01/05 07:55:13;;;;;;;5.55;1.40;;;;;;;10.90;74.88;100522.78;10354438;28;20053;-72
2023/01/05 08:00:14;;;;;;;8.45;1.52;;;;;;;10.90;74.93;100529.00;10355077;28;20975;-71
2023/01/05 08:05:16;;;;;;;7.65;1.50;;;;;;;10.96;75.40;100536.50;10362392;28;20053;-58
2023/01/05 08:10:29;;;;;;;10.48;2.83;;;;;;;11.18;74.48;100550.78;10361906;28;20065;-56
2023/01/05 08:15:31;;;;;;;8.35;1.30;;;;;;;11.21;74.87;100560.38;10349034;28;20092;-56
2023/01/05 08:20:32;;;;;;;5.70;1.70;;;;;;;11.26;74.66;100555.50;10349846;28;20045;-67
2023/01/05 08:25:34;;;;;;;7.00;1.85;;;;;;;11.21;74.59;100563.88;10347942;28;20050;-65
2023/01/05 08:30:35;;;;;;;7.45;1.55;;;;;;;11.11;74.86;100577.09;10348123;28;20084;-68
2023/01/05 08:35:41;;;;;;;8.23;1.77;;;;;;;11.02;75.91;100579.59;10356641;28;21007;-72
2023/01/05 08:40:43;;;;;;;6.85;1.80;;;;;;;11.03;76.28;100578.63;10346217;28;20048;-72
2023/01/05 08:45:51;;;;;;;7.88;1.65;;;;;;;11.02;76.25;100584.91;10344700;28;20817;-70
2023/01/05 08:51:10;;;;;;;4.65;1.55;;;;;;;10.96;77.27;100589.75;10351779;28;20068;-68
2023/01/05 08:56:12;;;;;;;5.05;1.83;;;;;;;11.00;77.32;100600.19;10371980;28;20058;-71
2023/01/05 09:01:16;;;;;;;4.57;0.93;;;;;;;11.07;77.50;100599.59;10367728;28;20168;-69
2023/01/05 09:06:19;;;;;;;6.82;1.75;;;;;;;11.12;78.71;100600.09;10343606;28;20041;-67
2023/01/05 09:11:23;;;;;;;6.28;1.55;;;;;;;11.18;78.46;100609.41;10361809;28;20059;-67
2023/01/05 09:16:28;;;;;;;4.30;1.55;;;;;;;11.18;77.54;100606.75;10357395;28;20183;-69
2023/01/05 09:21:51;;;;;;;9.32;1.60;;;;;;;11.16;77.75;100600.69;10364375;28;20053;-64
2023/01/05 09:26:52;;;;;;;7.60;2.72;;;;;;;11.27;77.31;100602.53;10349874;28;20125;-66
2023/01/05 09:31:54;;;;;;;8.68;1.90;;;;;;;11.38;77.11;100615.88;10358961;28;20147;-69
2023/01/05 09:36:56;;;;;;;8.60;2.28;;;;;;;11.40;76.03;100610.41;10369664;28;20148;-74
2023/01/05 09:42:03;;;;;;;6.78;2.20;;;;;;;11.53;75.17;100621.81;10373639;28;20057;-70
2023/01/05 09:47:41;;;;;;;9.93;2.50;;;;;;;11.64;74.83;100621.81;10367151;28;20164;-69
2023/01/05 09:52:44;;;;;;;10.65;2.38;;;;;;;11.47;75.15;100630.31;10322156;28;20049;-53
2023/01/05 09:57:57;;;;;;;9.07;2.92;;;;;;;11.95;73.79;100629.22;10356368;28;20054;-60
2023/01/05 10:03:07;;;;;;;11.35;2.53;;;;;;;12.02;73.06;100638.41;10355568;28;20054;-70
2023/01/05 10:08:18;;;;;;;7.57;2.90;;;;;;;11.94;72.46;100633.72;10351759;28;20054;-68
2023/01/05 10:13:29;;;;;;;9.90;2.33;;;;;;;11.98;72.34;100637.81;10350557;28;20057;-67
2023/01/05 10:18:33;;;;;;;10.02;2.65;;;;;;;12.19;71.79;100639.75;10343700;28;20798;-68
2023/01/05 10:23:54;;;;;;;6.67;2.20;;;;;;;12.09;71.89;100657.47;10367330;28;21444;-69
2023/01/05 10:28:59;;;;;;;9.57;2.17;;;;;;;11.97;72.63;100652.13;10369776;28;20750;-69
2023/01/05 10:34:23;;;;;;;7.30;1.63;;;;;;;11.77;73.77;100663.50;10356590;28;20053;-66
2023/01/05 10:39:48;;;;;;;6.63;1.83;;;;;;;11.72;74.39;100657.69;10342723;28;20511;-66
2023/01/05 10:45:01;;;;;;;7.32;2.28;;;;;;;11.96;73.38;100657.59;10359398;28;20075;-68
2023/01/05 10:50:35;;;;;;;9.68;2.72;;;;;;;11.91;72.98;100657.94;10358912;28;20089;-68
2023/01/05 10:56:02;;;;;;;8.23;2.17;;;;;;;12.43;72.24;100658.25;10347726;28;20063;-65
2023/01/05 11:01:24;;;;;;;6.63;2.22;;;;;;;12.35;72.05;100663.34;10357482;28;20052;-67
2023/01/05 11:06:29;;;;;;;9.18;2.83;;;;;;;12.43;71.97;100662.72;10343168;28;20614;-67
2023/01/05 11:11:38;;;;;;;9.30;2.83;;;;;;;12.54;71.54;100668.03;10364834;28;20049;-68
2023/01/05 11:16:51;;;;;;;7.93;2.38;;;;;;;12.50;71.30;100667.44;10372733;28;20186;-67
2023/01/05 11:21:53;;;;;;;10.00;2.25;;;;;;;12.71;70.28;100680.00;10347134;28;20056;-66
2023/01/05 11:27:22;;;;;;;8.38;3.15;;;;;;;12.30;71.65;100682.41;10357790;28;20048;-71
2023/01/05 11:32:24;;;;;;;12.95;3.13;;;;;;;12.32;72.31;100680.47;10342044;28;20057;-68
2023/01/05 11:37:29;;;;;;;12.27;2.70;;;;;;;12.36;72.33;100681.06;10358396;28;20049;-69
2023/01/05 11:42:41;;;;;;;8.95;2.70;;;;;;;12.22;71.97;100687.53;10348667;28;20127;-68
2023/01/05 11:47:46;;;;;;;7.78;2.75;;;;;;;12.17;72.57;100674.56;10355995;28;20099;-68
2023/01/05 11:52:54;;;;;;;10.07;2.50;;;;;;;12.25;71.70;100689.97;10368920;28;20055;-67
2023/01/05 11:58:30;;;;;;;11.95;2.40;;;;;;;12.11;71.18;100684.88;10360720;28;20046;-68
2023/01/05 12:03:56;;;;;;;9.27;2.58;;;;;;;12.02;71.93;100689.97;10346312;28;20117;-66
2023/01/05 12:09:28;;;;;;;9.75;3.10;;;;;;;12.14;71.36;100682.78;10332192;28;20694;-69
2023/01/05 12:14:50;;;;;;;10.15;3.30;;;;;;;12.17;71.17;100676.38;10340640;28;20069;-67
2023/01/05 12:20:05;;;;;;;9.93;2.90;;;;;;;12.15;71.28;100695.16;10332577;28;20079;-68
2023/01/05 12:25:12;;;;;;;12.30;2.63;;;;;;;12.17;71.27;100677.22;10336213;28;20046;-70
2023/01/05 12:30:25;;;;;;;10.70;3.13;;;;;;;12.69;69.16;100671.28;10338174;28;20301;-67
2023/01/05 12:36:12;;;;;;;10.88;2.83;;;;;;;14.78;62.08;100673.69;10349808;28;20468;-63
2023/01/05 12:41:38;;;;;;;11.77;3.65;;;;;;;15.72;56.64;100686.38;10353461;28;20049;-62
2023/01/05 12:47:07;;;;;;;13.88;3.63;;;;;;;14.72;60.39;100684.97;10352262;28;20052;-63
2023/01/05 12:52:35;;;;;;;9.85;3.20;;;;;;;13.74;62.68;100673.13;10354028;28;20136;-62
2023/01/05 12:57:56;;;;;;;11.93;3.38;;;;;;;13.18;64.72;100682.31;10362243;28;20947;-62
2023/01/05 13:03:01;;;;;;;10.95;2.90;;;;;;;12.95;65.03;100690.47;10339159;28;20065;-62
2023/01/05 13:08:17;;;;;;;10.73;3.40;;;;;;;13.10;65.35;100696.34;10353453;28;20070;-63
2023/01/05 13:13:29;;;;;;;8.75;2.50;;;;;;;12.90;66.06;100690.00;10354874;28;20629;-62
2023/01/05 13:18:35;;;;;;;9.82;2.95;;;;;;;12.82;65.90;100697.78;10351600;28;20056;-61
2023/01/05 13:23:52;;;;;;;10.18;2.95;;;;;;;13.00;65.66;100690.94;10345457;28;20042;-68
2023/01/05 13:28:56;;;;;;;9.57;2.90;;;;;;;13.20;64.12;100707.13;10345894;28;20049;-68
2023/01/05 13:34:16;;;;;;;8.70;2.80;;;;;;;14.77;59.81;100696.13;10349609;28;20057;-66
2023/01/05 13:39:32;;;;;;;9.40;3.58;;;;;;;15.46;57.21;100696.94;10354882;28;20068;-67
2023/01/05 13:44:43;;;;;;;11.65;3.00;;;;;;;14.45;59.56;100697.16;10349504;28;20045;-68
2023/01/05 13:50:16;;;;;;;10.65;3.45;;;;;;;14.75;60.16;100700.75;10352071;28;20048;-67
2023/01/05 13:55:20;;;;;;;12.73;3.45;;;;;;;14.11;60.92;100700.19;10359261;28;20058;-63
2023/01/05 14:00:33;;;;;;;10.75;2.85;;;;;;;13.67;62.75;100704.91;10353936;28;20049;-67
2023/01/05 14:05:47;;;;;;;12.10;3.40;;;;;;;13.27;64.15;100714.50;10365167;28;20056;-67
2023/01/05 14:11:07;;;;;;;11.80;2.47;;;;;;;13.12;64.62;100720.25;10338387;28;20761;-66
2023/01/05 14:16:48;;;;;;;7.60;2.75;;;;;;;13.02;65.32;100720.22;10360943;28;21952;-63
2023/01/05 14:21:53;;;;;;;8.40;3.05;;;;;;;12.97;65.92;100725.06;10255901;28;20137;-63
2023/01/05 14:27:03;;;;;;;8.98;3.22;;;;;;;12.72;65.35;100729.78;10316943;28;20044;-64
2023/01/05 14:32:25;;;;;;;9.82;2.63;;;;;;;12.58;65.22;100735.38;10369840;28;20045;-63
2023/01/05 14:37:41;;;;;;;7.07;2.55;;;;;;;12.55;63.41;100740.00;10353881;28;20046;-67
2023/01/05 14:42:51;;;;;;;11.52;2.85;;;;;;;12.49;62.94;100744.97;10351357;28;20207;-64
2023/01/05 14:47:57;;;;;;;7.72;2.55;;;;;;;12.61;66.21;100744.00;10344581;28;20118;-66
2023/01/05 14:53:08;;;;;;;9.25;2.72;;;;;;;12.43;69.53;100757.03;10342499;28;20541;-65
2023/01/05 14:58:13;;;;;;;10.05;3.05;;;;;;;12.27;70.96;100768.06;10346323;28;20131;-67
2023/01/05 15:03:29;;;;;;;13.18;3.65;;;;;;;12.00;71.81;100771.94;10344197;28;20052;-65
2023/01/05 15:08:59;;;;;;;10.57;3.80;;;;;;;11.98;72.17;100771.22;10339035;28;20045;-64
2023/01/05 15:20:22;;;;;;;10.10;2.85;;;;;;;12.01;72.58;100778.16;10346372;28;20084;-66
2023/01/05 15:26:01;;;;;;;9.90;3.15;;;;;;;11.88;72.81;100780.03;10353150;28;20041;-70
2023/01/05 15:31:30;;;;;;;7.33;3.07;;;;;;;11.83;72.79;100780.41;10361398;28;20061;-64
2023/01/05 15:36:42;;;;;;;8.73;2.83;;;;;;;11.76;73.08;100784.50;10353140;28;20128;-67
2023/01/05 15:41:44;;;;;;;13.98;3.90;;;;;;;11.76;72.85;100781.84;10343240;28;20155;-66
2023/01/05 15:46:46;;;;;;;8.60;2.97;;;;;;;11.77;72.83;100788.84;10341016;28;20060;-65
2023/01/05 15:51:52;;;;;;;13.88;3.60;;;;;;;11.80;72.51;100786.81;10358100;28;20055;-65
2023/01/05 15:56:57;;;;;;;9.35;3.22;;;;;;;11.71;72.27;100784.88;10353519;28;20053;-67
2023/01/05 16:02:00;;;;;;;13.38;4.88;;;;;;;11.73;72.82;100787.41;10348537;28;20057;-66
2023/01/05 16:07:04;;;;;;;7.75;3.30;;;;;;;11.74;72.78;100786.41;10367313;28;20188;-65
2023/01/05 16:12:23;;;;;;;11.80;2.90;;;;;;;11.78;72.65;100790.56;10350703;28;20767;-62
2023/01/05 16:17:26;;;;;;;11.52;3.92;;;;;;;11.70;73.11;100779.66;10356205;28;20057;-59
2023/01/05 16:22:54;;;;;;;13.77;4.00;;;;;;;11.66;73.19;100790.56;10350310;28;20233;-59
2023/01/05 16:28:03;;;;;;;11.13;3.55;;;;;;;11.64;73.76;100792.47;10324643;28;20064;-58
2023/01/05 16:33:12;;;;;;;13.52;4.43;;;;;;;11.62;73.68;100799.75;10340873;28;20049;-58
2023/01/05 16:38:22;;;;;;;13.30;4.00;;;;;;;11.61;74.07;100798.03;10344572;28;20638;-58
2023/01/05 16:43:32;;;;;;;9.43;2.92;;;;;;;11.61;74.01;100800.69;10345974;28;20803;-63
2023/01/05 16:48:33;;;;;;;12.52;4.30;;;;;;;11.65;74.09;100793.34;10346054;28;20045;-64
2023/01/05 16:53:41;;;;;;;9.52;3.92;;;;;;;11.61;74.00;100792.69;10333944;28;20115;-61
2023/01/05 16:58:43;;;;;;;8.82;3.22;;;;;;;11.60;74.17;100791.00;10352743;28;20184;-62
2023/01/05 17:03:45;;;;;;;9.95;3.20;;;;;;;11.64;74.17;100792.47;10344166;28;20124;-62
2023/01/05 17:08:47;;;;;;;8.23;3.28;;;;;;;11.58;73.91;100781.44;10343539;28;20044;-62
2023/01/05 17:13:52;;;;;;;12.25;4.32;;;;;;;11.59;74.14;100788.44;10331712;28;20209;-63
2023/01/05 17:18:53;;;;;;;;;;;;;;;11.63;73.92;100787.25;10354798;28;21433;-61
2023/01/05 17:23:59;;;;;;;12.75;3.70;;;;;;;11.52;74.27;100793.41;10358523;28;19925;-59
2023/01/05 17:29:03;;;;;;;11.38;3.50;;;;;;;11.42;74.74;100779.06;10345432;28;20753;-58
2023/01/05 17:34:05;;;;;;;12.00;3.57;;;;;;;11.39;75.17;100776.63;10341019;28;21507;-59
2023/01/05 17:39:06;;;;;;;9.27;3.40;;;;;;;11.42;75.53;100779.06;10355565;28;20836;-59
2023/01/05 17:44:10;;;;;;;14.75;3.75;;;;;;;11.49;75.18;100788.31;10339132;28;20541;-59
2023/01/05 17:49:15;;;;;;;9.77;3.63;;;;;;;11.46;75.33;100788.53;10354521;28;20065;-60
2023/01/05 17:54:17;;;;;;;13.32;3.72;;;;;;;11.41;75.54;100782.69;10354785;28;20845;-59
2023/01/05 17:59:19;;;;;;;12.70;4.20;;;;;;;11.41;75.64;100780.03;10353210;28;20140;-59
2023/01/05 18:04:21;;;;;;;8.85;3.45;;;;;;;11.30;75.55;100784.38;10348554;28;20199;-59
2023/01/05 18:09:23;;;;;;;13.88;4.75;;;;;;;11.22;76.04;100781.41;10340558;28;20101;-59
2023/01/05 18:14:25;;;;;;;14.82;3.78;;;;;;;11.25;76.17;100783.00;10350811;28;20136;-59
2023/01/05 18:19:29;;;;;;;13.88;4.72;;;;;;;11.26;76.16;100782.03;10340599;28;20048;-60
2023/01/05 18:24:34;;;;;;;8.50;3.00;;;;;;;11.15;76.27;100785.50;10370979;28;20120;-59
2023/01/05 18:29:37;;;;;;;15.32;4.10;;;;;;;11.09;76.87;100785.97;10353266;28;20061;-59
2023/01/05 18:34:39;;;;;;;14.23;4.90;;;;;;;11.12;76.91;100775.06;10378786;28;20053;-59
2023/01/05 18:39:42;;;;;;;15.10;5.70;;;;;;;11.09;77.66;100777.97;10353781;28;20060;-60
2023/01/05 18:44:43;;;;;;;7.70;3.10;;;;;;;11.11;78.01;100786.72;10366413;28;20126;-63
2023/01/05 18:49:45;;;;;;;12.95;4.07;;;;;;;11.14;78.07;100778.50;10347818;28;20068;-59
2023/01/05 18:54:47;;;;;;;13.40;4.13;;;;;;;11.18;78.07;100774.63;10361761;28;20060;-60
2023/01/05 18:59:49;;;;;;;11.88;5.75;;;;;;;11.24;78.32;100776.81;10350008;28;20050;-60
2023/01/05 19:04:52;;;;;;;14.13;4.95;;;;;;;11.26;78.13;100774.91;10341742;28;20052;-59
2023/01/05 19:09:54;;;;;;;11.52;4.72;;;;;;;11.24;78.26;100779.47;10358843;28;20056;-63
2023/01/05 19:14:56;;;;;;;10.07;4.43;;;;;;;11.13;78.79;100777.63;10348748;28;20115;-59
2023/01/05 19:19:59;;;;;;;12.45;4.57;;;;;;;11.07;79.08;100782.56;10342248;28;20068;-59
2023/01/05 19:25:04;;;;;;;12.63;4.35;;;;;;;11.04;79.28;100780.13;10348041;28;20132;-60
2023/01/05 19:30:07;;;;;;;10.40;4.13;;;;;;;11.07;79.05;100774.59;10343649;28;20045;-59
2023/01/05 19:35:11;;;;;;;12.23;4.07;;;;;;;11.03;79.03;100781.09;10333085;28;20052;-59
2023/01/05 19:40:15;;;;;;;13.05;4.10;;;;;;;11.00;79.59;100781.31;10342208;28;20053;-59
2023/01/05 19:45:17;;;;;;;14.55;4.85;;;;;;;10.99;80.10;100780.47;10335506;28;20057;-60
2023/01/05 19:50:18;;;;;;;7.57;3.50;;;;;;;11.01;80.22;100777.69;10343893;28;20050;-59
2023/01/05 19:55:20;;;;;;;10.18;3.40;;;;;;;10.88;81.99;100786.56;10343779;28;20107;-59
2023/01/05 20:00:21;;;;;;;12.75;3.83;;;;;;;10.83;84.00;100777.25;10328222;28;20752;-59
2023/01/05 20:05:23;;;;;;;14.25;4.82;;;;;;;10.78;86.09;100767.78;10354158;28;20060;-60
2023/01/05 20:10:24;;;;;;;15.52;4.70;;;;;;;10.73;87.17;100775.25;10307998;28;20048;-59
2023/01/05 20:15:26;;;;;;;11.07;4.47;;;;;;;10.80;86.68;100770.31;10350821;28;20061;-58
2023/01/05 20:20:28;;;;;;;11.48;4.30;;;;;;;10.74;87.25;100760.13;10338955;28;20061;-58
2023/01/05 20:25:32;;;;;;;10.73;4.13;;;;;;;10.72;87.06;100762.03;10358723;28;20227;-63
2023/01/05 20:30:33;;;;;;;13.68;4.47;;;;;;;10.77;87.01;100760.72;10317214;28;20060;-59
2023/01/05 20:35:39;;;;;;;11.50;3.80;;;;;;;10.73;87.70;100764.59;10316905;28;20056;-58
2023/01/05 20:40:41;;;;;;;10.23;4.50;;;;;;;10.75;88.15;100767.16;10306555;28;20053;-58
2023/01/05 20:45:43;;;;;;;16.13;4.22;;;;;;;10.72;88.08;100767.34;10345557;28;20129;-59
2023/01/05 20:50:45;;;;;;;11.23;3.92;;;;;;;10.73;87.69;100769.06;10327842;28;20045;-58
2023/01/05 20:55:51;;;;;;;14.93;4.40;;;;;;;10.70;88.43;100755.97;10343697;28;20052;-57
2023/01/05 21:00:53;;;;;;;10.13;4.10;;;;;;;10.73;88.74;100763.75;10349022;28;20056;-60
2023/01/05 21:06:15;;;;;;;10.50;3.38;;;;;;;10.67;89.39;100761.53;10329135;28;20056;-58
2023/01/05 21:11:18;;;;;;;13.32;4.20;;;;;;;10.72;89.61;100762.03;10350452;28;20050;-57
2023/01/05 21:16:31;;;;;;;9.55;4.28;;;;;;;10.70;90.17;100763.97;10345195;28;20057;-58
2023/01/05 21:21:33;;;;;;;10.50;4.10;;;;;;;10.68;90.78;100766.75;10337823;28;20392;-57
2023/01/05 21:26:35;;;;;;;10.40;4.05;;;;;;;10.70;90.99;100770.13;10353763;28;20049;-56
2023/01/05 21:31:38;;;;;;;11.00;4.22;;;;;;;10.70;91.52;100775.44;10352521;28;20156;-57
2023/01/05 21:36:43;;;;;;;12.23;3.83;;;;;;;10.67;92.09;100774.84;10343167;28;20042;-56
2023/01/05 21:47:08;;;;;;;11.63;3.75;;;;;;;10.69;92.26;100767.56;10342433;28;20092;-58
2023/01/05 21:57:29;;;;;;;10.10;3.70;;;;;;;10.75;91.93;100753.84;10340762;28;20049;-57
2023/01/05 22:02:31;;;;;;;8.68;3.25;;;;;;;10.81;91.67;100757.84;10349536;28;20049;-58
2023/01/05 22:07:33;;;;;;;8.25;3.40;;;;;;;10.76;91.88;100748.41;10350433;28;20071;-56
2023/01/05 22:12:34;;;;;;;9.98;3.33;;;;;;;10.78;92.17;100740.31;10336323;28;20134;-57
2023/01/05 22:17:36;;;;;;;9.68;3.70;;;;;;;10.76;92.29;100742.22;10355217;28;20482;-57
2023/01/05 22:22:37;;;;;;;10.95;4.18;;;;;;;10.83;92.46;100738.13;10355846;28;20049;-57
2023/01/05 22:27:39;;;;;;;10.20;3.20;;;;;;;10.87;92.25;100739.63;10350726;28;20053;-57
2023/01/05 22:32:40;;;;;;;8.52;2.85;;;;;;;10.83;93.77;100727.50;10354018;28;20056;-57
2023/01/05 22:37:49;;;;;;;6.68;2.88;;;;;;;10.74;95.25;100717.53;10356269;28;20224;-56
2023/01/05 22:42:51;;;;;;;7.03;3.50;;;;;;;10.85;95.50;100722.88;10338056;28;20059;-58
2023/01/05 22:47:52;;;;;;;9.60;3.70;;;;;;;10.83;96.23;100718.66;10357186;28;20059;-57
2023/01/05 22:52:53;;;;;;;12.55;3.67;;;;;;;10.83;96.94;100722.16;10352108;28;20049;-57
2023/01/05 22:57:55;;;;;;;10.40;3.88;;;;;;;10.81;97.08;100721.44;10344495;28;20136;-62
2023/01/05 23:02:59;;;;;;;8.45;2.88;;;;;;;10.88;96.86;100713.81;10368814;28;20776;-58
2023/01/05 23:08:00;;;;;;;8.03;3.30;;;;;;;10.76;98.35;100716.44;10340191;28;20886;-60
2023/01/05 23:13:02;;;;;;;9.63;3.50;;;;;;;10.71;99.58;100707.09;10345509;28;20730;-57
2023/01/05 23:18:06;;;;;;;8.25;3.25;;;;;;;10.73;99.86;100708.69;10346742;28;20168;-57
2023/01/05 23:23:09;;;;;;;7.07;3.70;;;;;;;10.84;99.57;100691.91;10342230;28;20454;-58
2023/01/05 23:28:11;;;;;;;7.40;2.95;;;;;;;10.90;98.81;100685.25;10360581;28;20049;-57
2023/01/05 23:33:14;;;;;;;9.18;3.45;;;;;;;10.98;98.53;100687.38;10351703;28;20128;-58
2023/01/05 23:38:15;;;;;;;8.07;2.75;;;;;;;11.02;98.15;100683.47;10334052;28;20083;-59
2023/01/05 23:43:19;;;;;;;6.93;2.75;;;;;;;10.97;98.59;100675.84;10352439;28;20056;-58
2023/01/05 23:48:23;;;;;;;6.43;2.85;;;;;;;10.95;99.36;100661.81;10338120;28;20607;-57
2023/01/05 23:53:26;;;;;;;7.63;2.80;;;;;;;11.01;99.25;100671.16;10355041;28;20042;-58
2023/01/05 23:58:28;;;;;;;5.45;3.08;;;;;;;11.01;99.27;100660.50;10333876;28;20071;-57
